National Weather Service Raw Text Product

Displaying AFOS PIL: TAFFOD Received: 2018-05-17 17:20 UTC


268 
FTUS43 KDMX 171720
TAFFOD
TAF
KFOD 171720Z 1718/1818 15008KT P6SM FEW250=